Time;durP1;ratioP1;P1;durP2;ratioP2;P2;SDS_P1;SDS_P2;PMS_P1;PMS_P2;Temp;Humidity;BMP_temperature;BMP_pressure;BME280_temperature;BME280_humidity;BME280_pressure;Samples;Min_cycle;Max_cycle;Signal;HPM_P1;HPM_P2
2022/06/12 00:00:14;;;;;;;18.00;10.82;;;14.30;99.90;;;;;;5031357;28;20057;-53
2022/06/12 00:02:40;;;;;;;17.80;10.43;;;14.40;99.90;;;;;;5031449;28;20763;-53
2022/06/12 00:05:06;;;;;;;18.42;11.18;;;14.50;99.90;;;;;;5031464;28;20152;-53
2022/06/12 00:07:32;;;;;;;21.67;11.88;;;14.50;99.90;;;;;;5031021;28;20025;-53
2022/06/12 00:09:57;;;;;;;17.52;11.48;;;14.40;99.90;;;;;;5062770;28;20025;-53
2022/06/12 00:12:23;;;;;;;16.73;11.20;;;14.30;99.90;;;;;;5030931;28;20029;-53
2022/06/12 00:14:49;;;;;;;18.80;12.20;;;14.20;99.90;;;;;;5030921;28;20550;-52
2022/06/12 00:17:15;;;;;;;16.90;11.80;;;14.20;99.90;;;;;;5030942;28;20489;-53
2022/06/12 00:19:44;;;;;;;20.33;13.52;;;14.10;99.90;;;;;;5031264;28;20025;-53
2022/06/12 00:22:10;;;;;;;24.00;13.10;;;14.10;99.90;;;;;;5030647;28;20033;-53
2022/06/12 00:24:37;;;;;;;28.48;15.57;;;14.00;99.90;;;;;;5030625;28;20036;-53
2022/06/12 00:27:03;;;;;;;25.27;14.48;;;14.00;99.90;;;;;;5030903;28;20178;-52
2022/06/12 00:29:35;;;;;;;23.80;13.35;;;14.00;99.90;;;;;;5030783;28;20029;-53
2022/06/12 00:32:08;;;;;;;24.20;15.20;;;14.10;99.90;;;;;;5031079;28;20357;-52
2022/06/12 00:34:42;;;;;;;24.50;14.30;;;14.10;99.90;;;;;;5030450;28;20033;-52
2022/06/12 00:37:10;;;;;;;23.33;14.27;;;14.20;99.90;;;;;;5036134;28;20021;-52
2022/06/12 00:39:36;;;;;;;25.95;15.93;;;14.20;99.90;;;;;;5040311;28;20408;-52
2022/06/12 00:42:04;;;;;;;25.67;15.10;;;14.10;99.90;;;;;;5038948;28;20017;-52
2022/06/12 00:44:36;;;;;;;26.67;15.80;;;14.10;99.90;;;;;;5040712;28;20021;-52
2022/06/12 00:47:05;;;;;;;25.95;15.27;;;14.10;99.90;;;;;;5041224;28;20471;-52
2022/06/12 00:49:46;;;;;;;26.63;15.50;;;14.10;99.90;;;;;;5040101;28;20401;-52
2022/06/12 00:52:23;;;;;;;29.30;15.25;;;14.00;99.90;;;;;;5038122;28;20037;-52
2022/06/12 00:54:52;;;;;;;25.75;15.45;;;14.10;99.90;;;;;;5037274;28;20103;-51
2022/06/12 00:57:20;;;;;;;22.88;14.00;;;14.10;99.90;;;;;;5039203;28;20025;-52
2022/06/12 00:59:48;;;;;;;24.23;14.60;;;14.00;99.90;;;;;;5036454;28;20129;-52
2022/06/12 01:02:17;;;;;;;24.05;14.38;;;14.00;99.90;;;;;;5039623;28;20028;-52
2022/06/12 01:07:37;;;;;;;24.40;15.13;;;14.10;99.90;;;;;;5036780;28;20062;-52
2022/06/12 01:10:07;;;;;;;28.60;13.07;;;13.80;99.90;;;;;;5038627;28;20132;-51
2022/06/12 01:12:43;;;;;;;18.25;12.10;;;13.70;99.90;;;;;;5038927;28;20076;-52
2022/06/12 01:15:17;;;;;;;21.85;13.15;;;13.60;99.90;;;;;;5039755;28;20033;-52
2022/06/12 01:17:43;;;;;;;20.08;11.98;;;13.50;99.90;;;;;;5040358;28;20013;-51
2022/06/12 01:20:14;;;;;;;19.80;11.63;;;13.50;99.90;;;;;;5038875;28;20026;-52
2022/06/12 01:23:11;;;;;;;19.95;11.05;;;13.40;99.90;;;;;;5037798;28;20272;-52
2022/06/12 01:25:52;;;;;;;31.83;12.13;;;13.30;99.90;;;;;;5038854;28;20029;-52
2022/06/12 01:28:57;;;;;;;22.77;12.00;;;13.30;99.90;;;;;;5039414;28;20440;-52
2022/06/12 01:31:50;;;;;;;20.92;12.63;;;13.30;99.90;;;;;;5039746;28;20100;-52
2022/06/12 01:34:37;;;;;;;20.73;13.13;;;13.30;99.90;;;;;;5037980;28;20112;-52
2022/06/12 01:37:24;;;;;;;18.77;10.80;;;13.20;99.90;;;;;;5039677;28;20053;-52
2022/06/12 01:39:52;;;;;;;22.25;12.90;;;13.30;99.90;;;;;;5036602;28;20032;-52
2022/06/12 01:42:36;;;;;;;20.67;12.20;;;13.40;99.90;;;;;;5038233;28;20036;-51
2022/06/12 01:45:29;;;;;;;17.63;11.63;;;13.50;99.90;;;;;;5039442;28;20033;-52
2022/06/12 01:48:19;;;;;;;17.27;10.75;;;13.60;99.90;;;;;;5037809;28;20025;-51
2022/06/12 01:51:05;;;;;;;17.88;10.60;;;13.60;99.90;;;;;;5039069;28;20143;-53
2022/06/12 01:53:37;;;;;;;13.45;9.02;;;13.70;99.90;;;;;;5037364;28;20037;-51
2022/06/12 01:56:22;;;;;;;18.20;9.85;;;13.60;99.90;;;;;;5037451;28;20100;-52
2022/06/12 01:59:18;;;;;;;20.83;10.57;;;13.50;99.90;;;;;;5035660;28;20065;-52
2022/06/12 02:01:51;;;;;;;18.10;9.20;;;13.50;99.90;;;;;;5039432;28;20617;-52
2022/06/12 02:04:20;;;;;;;15.05;8.90;;;13.40;99.90;;;;;;5039065;28;20025;-51
2022/06/12 02:06:53;;;;;;;17.48;10.27;;;13.20;99.90;;;;;;5035150;28;20018;-52
2022/06/12 02:09:23;;;;;;;17.77;10.77;;;13.00;99.90;;;;;;5037855;28;20025;-52
2022/06/12 02:14:54;;;;;;;20.70;10.77;;;13.00;99.90;;;;;;5032615;28;20115;-54
2022/06/12 02:17:27;;;;;;;21.42;11.73;;;12.90;99.90;;;;;;5029124;28;20056;-54
2022/06/12 02:19:54;;;;;;;17.65;10.48;;;12.90;99.90;;;;;;5029082;28;20033;-54
2022/06/12 02:22:24;;;;;;;19.50;11.90;;;12.90;99.90;;;;;;5029323;28;20025;-54
2022/06/12 02:25:13;;;;;;;18.35;9.73;;;12.80;99.90;;;;;;5029028;28;20038;-54
2022/06/12 02:27:45;;;;;;;17.58;10.85;;;12.80;99.90;;;;;;5028959;28;20091;-54
2022/06/12 02:30:21;;;;;;;17.63;11.43;;;12.80;99.90;;;;;;5027590;28;20022;-54
2022/06/12 02:32:57;;;;;;;20.50;10.48;;;12.80;99.90;;;;;;5038590;28;20586;-53
2022/06/12 02:35:43;;;;;;;14.05;9.48;;;12.90;99.90;;;;;;5031019;28;20064;-53
2022/06/12 02:38:14;;;;;;;14.48;8.73;;;12.90;99.90;;;;;;5032332;28;20060;-54
2022/06/12 02:40:52;;;;;;;14.80;9.70;;;13.00;99.90;;;;;;5032678;28;20026;-54
2022/06/12 02:43:28;;;;;;;14.70;9.73;;;12.90;99.90;;;;;;5032751;28;20025;-54
2022/06/12 02:45:57;;;;;;;17.27;8.95;;;13.00;99.90;;;;;;5032343;28;20565;-54
2022/06/12 02:48:23;;;;;;;11.90;7.97;;;12.90;99.90;;;;;;5032511;28;20435;-54
2022/06/12 02:51:01;;;;;;;19.90;9.63;;;12.90;99.90;;;;;;5032541;28;20537;-54
2022/06/12 02:53:47;;;;;;;13.10;8.95;;;12.80;99.90;;;;;;5032683;28;20038;-54
2022/06/12 02:56:24;;;;;;;17.02;10.68;;;12.80;99.90;;;;;;5032091;28;20033;-54
2022/06/12 02:59:01;;;;;;;20.13;10.48;;;12.80;99.90;;;;;;5032275;28;20025;-54
2022/06/12 03:01:43;;;;;;;18.02;10.75;;;12.80;99.90;;;;;;5032068;28;20041;-54
2022/06/12 03:04:27;;;;;;;15.75;9.55;;;12.90;99.90;;;;;;5032326;28;20043;-54
2022/06/12 03:06:53;;;;;;;13.43;9.75;;;12.90;99.90;;;;;;5032221;28;20050;-54
2022/06/12 03:09:18;;;;;;;11.40;8.57;;;13.00;99.90;;;;;;5032500;28;20022;-54
2022/06/12 03:11:48;;;;;;;14.40;9.20;;;13.00;99.90;;;;;;5032016;28;20025;-54
2022/06/12 03:14:18;;;;;;;12.35;8.95;;;12.90;99.90;;;;;;5031866;28;20048;-54
2022/06/12 03:16:45;;;;;;;13.18;9.10;;;12.80;99.90;;;;;;5032013;28;20503;-54
2022/06/12 03:19:12;;;;;;;19.33;9.70;;;12.80;99.90;;;;;;5031857;28;20036;-54
2022/06/12 03:21:41;;;;;;;15.35;10.05;;;12.80;99.90;;;;;;5032127;28;20392;-54
2022/06/12 03:24:36;;;;;;;14.98;9.23;;;12.70;99.90;;;;;;5031874;28;20079;-54
2022/06/12 03:27:11;;;;;;;12.93;9.20;;;12.80;99.90;;;;;;5031630;28;20461;-54
2022/06/12 03:29:46;;;;;;;19.17;9.13;;;12.70;99.90;;;;;;5031839;28;20025;-54
2022/06/12 03:32:26;;;;;;;16.98;9.63;;;12.80;99.90;;;;;;5031535;28;20021;-54
2022/06/12 03:35:17;;;;;;;15.95;9.77;;;12.80;99.90;;;;;;5031402;28;20056;-54
2022/06/12 03:37:50;;;;;;;21.40;9.30;;;12.90;99.90;;;;;;5031576;28;20079;-54
2022/06/12 03:40:41;;;;;;;12.77;9.48;;;12.80;99.90;;;;;;5031531;28;20032;-53
2022/06/12 03:43:45;;;;;;;15.23;10.25;;;12.80;99.90;;;;;;5031515;28;20025;-54
2022/06/12 03:46:31;;;;;;;17.75;10.40;;;12.80;99.90;;;;;;5030593;28;20032;-53
2022/06/12 03:49:08;;;;;;;12.27;9.63;;;12.80;99.90;;;;;;5031710;28;20049;-53
2022/06/12 03:51:57;;;;;;;11.50;9.07;;;12.80;99.90;;;;;;5031419;28;20025;-53
2022/06/12 03:54:42;;;;;;;12.43;9.38;;;13.10;99.90;;;;;;5031466;28;20412;-53
2022/06/12 04:00:23;;;;;;;14.85;10.73;;;13.30;99.90;;;;;;5031469;28;20032;-53
2022/06/12 04:03:27;;;;;;;17.05;11.05;;;13.50;99.90;;;;;;5029614;28;20029;-54
2022/06/12 04:06:05;;;;;;;14.15;9.93;;;13.50;99.90;;;;;;5031102;28;20028;-53
2022/06/12 04:08:49;;;;;;;13.95;10.50;;;13.60;99.90;;;;;;5031101;28;20033;-54
2022/06/12 04:11:17;;;;;;;17.02;10.85;;;13.60;99.90;;;;;;5030824;28;20022;-51
2022/06/12 04:13:44;;;;;;;14.25;9.75;;;13.70;99.90;;;;;;5030754;28;20053;-52
2022/06/12 04:16:30;;;;;;;13.55;9.30;;;13.80;99.90;;;;;;5030930;28;20029;-51
2022/06/12 04:18:56;;;;;;;16.00;9.07;;;13.80;99.90;;;;;;5031028;28;20099;-52
2022/06/12 04:21:25;;;;;;;14.45;8.88;;;13.90;99.90;;;;;;5030786;28;20026;-51
2022/06/12 04:24:11;;;;;;;13.52;9.55;;;14.00;99.90;;;;;;5030921;28;20386;-51
2022/06/12 04:26:39;;;;;;;20.85;10.30;;;13.90;99.90;;;;;;5030692;28;20528;-51
2022/06/12 04:29:11;;;;;;;17.40;9.90;;;14.10;99.90;;;;;;5030782;28;20092;-52
2022/06/12 04:31:44;;;;;;;16.67;10.15;;;14.00;99.90;;;;;;5030699;28;20032;-54
2022/06/12 04:34:19;;;;;;;13.05;9.48;;;14.10;99.90;;;;;;5030352;28;20431;-54
2022/06/12 04:36:49;;;;;;;19.67;12.30;;;14.30;99.90;;;;;;5030788;28;20040;-54
2022/06/12 04:39:18;;;;;;;17.08;12.63;;;14.30;99.90;;;;;;5030427;28;20524;-53
2022/06/12 04:41:44;;;;;;;18.00;12.63;;;14.40;99.90;;;;;;5030707;28;20034;-54
2022/06/12 04:44:11;;;;;;;19.20;11.07;;;14.50;99.90;;;;;;5030363;28;20021;-54
2022/06/12 04:46:42;;;;;;;17.52;11.30;;;14.60;99.90;;;;;;5030487;28;20087;-54
2022/06/12 04:49:12;;;;;;;17.52;12.63;;;14.70;99.90;;;;;;5028884;28;20522;-54
2022/06/12 04:51:38;;;;;;;14.90;11.68;;;14.70;99.90;;;;;;5030212;28;20115;-54
2022/06/12 04:54:05;;;;;;;15.25;12.40;;;14.90;99.90;;;;;;5030237;28;20497;-55
2022/06/12 04:56:33;;;;;;;18.60;12.93;;;15.00;99.90;;;;;;5029812;28;20097;-55
2022/06/12 04:59:00;;;;;;;18.02;12.40;;;15.10;99.90;;;;;;5029656;28;20034;-54
2022/06/12 05:01:26;;;;;;;19.80;12.23;;;15.20;99.90;;;;;;5030211;28;20135;-56
2022/06/12 05:03:52;;;;;;;17.92;12.30;;;15.20;99.90;;;;;;5029776;28;20026;-54
2022/06/12 05:06:18;;;;;;;18.25;13.30;;;15.40;99.90;;;;;;5029987;28;20037;-54
2022/06/12 05:08:46;;;;;;;18.48;13.00;;;15.50;99.90;;;;;;5030027;28;20079;-53
2022/06/12 05:11:12;;;;;;;20.95;12.80;;;15.50;99.90;;;;;;5029858;28;20128;-52
2022/06/12 05:13:39;;;;;;;20.90;13.23;;;15.60;99.90;;;;;;5029588;28;20556;-52
2022/06/12 05:16:06;;;;;;;20.33;12.98;;;15.70;99.90;;;;;;5030029;28;20018;-52
2022/06/12 05:18:31;;;;;;;16.00;12.10;;;15.70;99.90;;;;;;5029850;28;20033;-53
2022/06/12 05:20:57;;;;;;;22.27;12.23;;;15.80;99.90;;;;;;5029832;28;20079;-53
2022/06/12 05:23:23;;;;;;;17.80;12.82;;;16.00;99.90;;;;;;5029842;28;20040;-52
2022/06/12 05:25:49;;;;;;;16.17;10.93;;;16.00;99.90;;;;;;5029633;28;20124;-53
2022/06/12 05:28:17;;;;;;;19.63;11.60;;;16.10;99.90;;;;;;5029583;28;20049;-54
2022/06/12 05:30:44;;;;;;;17.50;10.23;;;16.20;99.90;;;;;;5029508;28;20013;-54
2022/06/12 05:33:10;;;;;;;14.75;10.40;;;16.30;99.90;;;;;;5029394;28;20037;-54
2022/06/12 05:35:37;;;;;;;15.82;10.75;;;16.40;99.90;;;;;;5029642;28;20112;-54
2022/06/12 05:38:05;;;;;;;18.88;10.65;;;16.50;99.90;;;;;;5029532;28;20109;-54
2022/06/12 05:40:32;;;;;;;16.52;10.43;;;16.60;99.90;;;;;;5028960;28;20079;-54
2022/06/12 05:42:58;;;;;;;13.10;8.68;;;16.70;99.90;;;;;;5029268;28;20029;-54
2022/06/12 05:45:26;;;;;;;13.25;9.52;;;16.70;99.90;;;;;;5029274;28;20029;-55
2022/06/12 05:47:59;;;;;;;15.60;9.85;;;16.90;99.90;;;;;;5029295;28;20033;-54
2022/06/12 05:50:31;;;;;;;18.25;8.93;;;16.90;99.90;;;;;;5029148;28;20053;-54
2022/06/12 05:52:58;;;;;;;11.35;8.40;;;17.00;99.90;;;;;;5029130;28;20104;-54
2022/06/12 05:55:24;;;;;;;15.13;8.02;;;17.10;99.90;;;;;;5028966;28;20068;-52
2022/06/12 05:57:50;;;;;;;18.17;8.52;;;17.20;99.90;;;;;;5028960;28;20049;-52
2022/06/12 06:00:23;;;;;;;16.45;9.45;;;17.30;99.90;;;;;;5029184;28;20029;-54
2022/06/12 06:02:49;;;;;;;12.48;7.38;;;17.40;99.90;;;;;;5029010;28;20013;-53
2022/06/12 06:05:15;;;;;;;13.32;7.20;;;17.50;99.90;;;;;;5028841;28;20534;-53
2022/06/12 06:07:41;;;;;;;14.15;7.53;;;17.60;99.90;;;;;;5028754;28;20103;-53
2022/06/12 06:10:13;;;;;;;12.55;7.53;;;17.60;99.90;;;;;;5028869;28;20026;-53
2022/06/12 06:12:39;;;;;;;11.43;6.03;;;17.80;99.90;;;;;;5028640;28;20553;-52
2022/06/12 06:15:05;;;;;;;13.52;6.50;;;17.90;99.90;;;;;;5029026;28;20052;-53
2022/06/12 06:17:31;;;;;;;8.43;5.10;;;18.00;99.90;;;;;;5029089;28;20032;-53
2022/06/12 06:19:57;;;;;;;9.05;4.97;;;18.10;99.90;;;;;;5028805;28;20526;-52
2022/06/12 06:22:22;;;;;;;15.25;5.82;;;18.20;99.90;;;;;;5028664;28;20376;-53
2022/06/12 06:24:48;;;;;;;10.93;4.82;;;18.30;99.90;;;;;;5029079;28;20037;-50
2022/06/12 06:27:15;;;;;;;10.60;4.88;;;18.40;99.90;;;;;;5028675;28;20021;-54
2022/06/12 06:29:42;;;;;;;10.80;5.25;;;18.50;99.90;;;;;;5028665;28;20059;-54
2022/06/12 06:32:08;;;;;;;10.25;5.18;;;18.50;99.90;;;;;;5028942;28;20476;-54
2022/06/12 06:34:36;;;;;;;11.05;5.15;;;18.50;99.90;;;;;;5028700;28;20427;-54
2022/06/12 06:37:03;;;;;;;9.05;4.78;;;18.60;99.90;;;;;;5028895;28;20087;-54
2022/06/12 06:39:29;;;;;;;14.85;4.97;;;18.80;99.90;;;;;;5028695;28;20036;-54
2022/06/12 06:41:54;;;;;;;9.65;4.35;;;18.80;99.90;;;;;;5028508;28;20109;-53
2022/06/12 06:47:05;;;;;;;8.13;3.38;;;19.00;99.90;;;;;;5028748;28;20032;-53
2022/06/12 06:49:31;;;;;;;8.30;3.28;;;19.20;99.90;;;;;;5028423;28;20029;-55
2022/06/12 06:51:57;;;;;;;8.70;2.88;;;19.20;99.90;;;;;;5028278;28;20030;-53
2022/06/12 06:54:23;;;;;;;11.30;4.35;;;19.20;99.90;;;;;;5028395;28;20034;-53
2022/06/12 06:56:49;;;;;;;7.93;4.70;;;19.30;99.90;;;;;;5028218;28;20036;-51
2022/06/12 06:59:15;;;;;;;6.97;4.60;;;19.40;99.90;;;;;;5028476;28;20074;-55
2022/06/12 07:01:41;;;;;;;10.10;4.05;;;19.50;99.90;;;;;;5027069;28;20113;-54
2022/06/12 07:04:07;;;;;;;11.65;5.00;;;19.70;99.90;;;;;;5028079;28;20031;-54
2022/06/12 07:06:33;;;;;;;10.88;4.90;;;19.80;99.90;;;;;;5028253;28;20053;-55
2022/06/12 07:08:59;;;;;;;10.75;4.90;;;19.80;99.90;;;;;;5028496;28;20037;-55
2022/06/12 07:11:26;;;;;;;9.98;4.10;;;19.80;99.90;;;;;;5028231;28;20938;-54
2022/06/12 07:13:53;;;;;;;8.55;3.78;;;19.90;99.90;;;;;;5028015;28;20413;-54
2022/06/12 07:16:20;;;;;;;6.40;3.30;;;20.00;99.90;;;;;;5028382;28;20025;-54
2022/06/12 07:18:46;;;;;;;10.35;3.25;;;20.20;99.90;;;;;;5028044;28;20064;-55
2022/06/12 07:21:12;;;;;;;6.80;3.80;;;20.20;99.90;;;;;;5030133;28;20084;-54
2022/06/12 07:23:40;;;;;;;10.23;4.13;;;20.20;99.90;;;;;;5031877;28;20127;-53
2022/06/12 07:26:16;;;;;;;8.05;3.83;;;20.40;99.90;;;;;;5031802;28;20037;-52
2022/06/12 07:28:43;;;;;;;7.13;4.32;;;20.50;99.90;;;;;;5031674;28;20041;-52
2022/06/12 07:31:09;;;;;;;10.00;3.80;;;20.70;99.90;;;;;;5031439;28;20583;-53
2022/06/12 07:33:37;;;;;;;13.77;4.78;;;20.60;99.90;;;;;;5031472;28;20087;-52
2022/06/12 07:36:08;;;;;;;10.05;3.92;;;20.70;99.90;;;;;;5031476;28;20037;-53
2022/06/12 07:38:34;;;;;;;11.30;3.88;;;20.80;99.90;;;;;;5031595;28;20022;-53
2022/06/12 07:41:06;;;;;;;10.63;3.50;;;20.80;99.90;;;;;;5031793;28;20041;-53
2022/06/12 07:43:35;;;;;;;8.18;3.78;;;20.80;99.90;;;;;;5031254;28;20400;-53
2022/06/12 07:46:06;;;;;;;7.07;3.75;;;20.90;99.90;;;;;;5031540;28;20022;-53
2022/06/12 07:48:32;;;;;;;12.70;3.47;;;20.90;99.90;;;;;;5031417;28;20047;-53
2022/06/12 07:50:59;;;;;;;13.98;3.63;;;21.00;99.90;;;;;;5031102;28;20528;-53
2022/06/12 07:53:25;;;;;;;7.75;3.45;;;21.10;99.90;;;;;;5031156;28;20033;-53
2022/06/12 07:55:52;;;;;;;8.77;2.97;;;21.20;99.90;;;;;;5031279;28;20495;-52
2022/06/12 07:58:20;;;;;;;7.22;2.97;;;21.30;99.90;;;;;;5031310;28;20099;-52
2022/06/12 08:00:47;;;;;;;;;;;21.40;99.90;;;;;;5031623;28;20029;-53
2022/06/12 08:03:13;;;;;;;9.07;3.08;;;21.50;99.90;;;;;;5029982;28;19912;-52
2022/06/12 08:05:39;;;;;;;11.20;3.28;;;21.50;99.90;;;;;;5031275;28;20033;-53
2022/06/12 08:08:05;;;;;;;8.77;3.05;;;21.60;99.90;;;;;;5030875;28;20037;-53
2022/06/12 08:10:30;;;;;;;6.43;3.30;;;21.60;99.90;;;;;;5030983;28;20435;-53
2022/06/12 08:12:56;;;;;;;9.48;3.28;;;21.70;99.90;;;;;;5030647;28;20117;-52
2022/06/12 08:15:27;;;;;;;6.43;2.78;;;21.70;99.90;;;;;;5030752;28;20025;-52
2022/06/12 08:17:53;;;;;;;9.45;3.20;;;21.70;99.90;;;;;;5030740;28;20409;-52
2022/06/12 08:20:25;;;;;;;5.47;2.50;;;21.70;99.90;;;;;;5030863;28;20157;-53
2022/06/12 08:22:53;;;;;;;10.73;3.05;;;21.80;99.90;;;;;;5030579;28;20072;-52
2022/06/12 08:25:20;;;;;;;6.03;2.40;;;21.80;99.90;;;;;;5030698;28;20025;-53
2022/06/12 08:27:46;;;;;;;10.37;3.00;;;21.80;99.90;;;;;;5030716;28;20025;-52
2022/06/12 08:30:12;;;;;;;6.18;2.90;;;21.80;99.90;;;;;;5030526;28;20284;-52
2022/06/12 08:32:39;;;;;;;6.90;2.75;;;22.00;99.90;;;;;;5030586;28;20033;-52
2022/06/12 08:35:13;;;;;;;8.10;2.40;;;22.10;99.90;;;;;;5028802;28;20045;-53
2022/06/12 08:37:39;;;;;;;8.02;2.72;;;22.20;99.90;;;;;;5030648;28;20034;-52
2022/06/12 08:40:17;;;;;;;5.57;2.42;;;22.20;97.90;;;;;;5030230;28;20105;-52
2022/06/12 08:43:09;;;;;;;7.55;2.92;;;22.10;96.30;;;;;;5030518;28;20049;-53
2022/06/12 08:45:49;;;;;;;3.67;2.22;;;22.30;99.50;;;;;;5036948;28;20033;-53
2022/06/12 08:48:30;;;;;;;3.83;2.30;;;22.30;97.40;;;;;;5035517;28;20456;-53
2022/06/12 08:51:17;;;;;;;6.15;2.65;;;22.30;97.20;;;;;;5028290;28;20060;-53
2022/06/12 08:54:06;;;;;;;6.70;3.05;;;22.40;98.40;;;;;;5029015;28;20041;-53
2022/06/12 08:56:38;;;;;;;6.40;2.00;;;22.40;96.80;;;;;;5027125;28;20488;-53
2022/06/12 08:59:09;;;;;;;8.02;2.50;;;22.40;95.10;;;;;;5027874;28;20032;-53
2022/06/12 09:01:41;;;;;;;6.40;2.70;;;22.60;99.10;;;;;;5035260;28;20033;-53
2022/06/12 09:04:13;;;;;;;6.38;2.40;;;22.80;96.30;;;;;;5029794;28;20028;-53
2022/06/12 09:06:49;;;;;;;5.53;2.38;;;22.70;94.60;;;;;;5029864;28;20021;-52
2022/06/12 09:09:20;;;;;;;3.55;2.42;;;22.70;95.40;;;;;;5029758;28;20051;-53
2022/06/12 09:12:08;;;;;;;7.38;2.67;;;22.80;95.60;;;;;;5029696;28;20095;-51
2022/06/12 09:15:04;;;;;;;6.13;2.80;;;22.90;94.00;;;;;;5025272;28;20107;-52
2022/06/12 09:17:43;;;;;;;7.00;2.75;;;23.00;94.80;;;;;;5027560;28;20041;-52
2022/06/12 09:20:14;;;;;;;5.82;3.20;;;23.20;94.50;;;;;;5028012;28;20091;-53
2022/06/12 09:23:07;;;;;;;6.60;2.63;;;23.30;95.40;;;;;;5028766;28;20118;-52
2022/06/12 09:25:44;;;;;;;5.97;2.20;;;23.60;95.30;;;;;;5028903;28;20049;-53
2022/06/12 09:28:26;;;;;;;7.53;3.15;;;23.80;93.00;;;;;;5028751;28;20069;-52
2022/06/12 09:31:24;;;;;;;7.35;2.60;;;24.00;92.60;;;;;;5027974;28;20096;-52
2022/06/12 09:34:06;;;;;;;10.77;2.85;;;24.00;91.70;;;;;;5029204;28;20099;-53
2022/06/12 09:36:58;;;;;;;9.48;3.75;;;24.10;91.70;;;;;;5029056;28;20029;-52
2022/06/12 09:39:42;;;;;;;5.82;2.80;;;24.30;91.60;;;;;;5004274;28;20056;-53
2022/06/12 09:42:13;;;;;;;8.82;3.30;;;24.40;90.60;;;;;;5028531;28;20017;-52
2022/06/12 09:44:59;;;;;;;174.35;136.85;;;24.60;91.80;;;;;;5027540;28;20049;-52
2022/06/12 09:47:45;;;;;;;8.23;3.40;;;24.70;89.50;;;;;;5028748;28;20029;-52
2022/06/12 09:50:26;;;;;;;5.57;2.65;;;24.70;88.20;;;;;;5028703;28;20026;-53
2022/06/12 09:52:57;;;;;;;5.20;2.90;;;24.80;90.00;;;;;;5028844;28;20152;-53
2022/06/12 09:55:41;;;;;;;6.88;2.72;;;25.00;90.60;;;;;;5028893;28;20160;-53
2022/06/12 09:58:19;;;;;;;6.00;1.90;;;25.00;87.30;;;;;;5028998;28;20080;-53
2022/06/12 10:01:04;;;;;;;7.65;2.30;;;24.90;84.20;;;;;;5028746;28;20041;-53
2022/06/12 10:03:57;;;;;;;8.35;2.97;;;24.50;82.90;;;;;;5027519;28;20071;-52
2022/06/12 10:06:42;;;;;;;6.88;3.33;;;24.60;82.10;;;;;;5027140;28;20531;-52
2022/06/12 10:09:29;;;;;;;6.53;2.45;;;24.80;88.40;;;;;;5024489;28;20376;-52
2022/06/12 10:12:14;;;;;;;5.63;2.67;;;24.30;83.00;;;;;;5029007;28;20391;-52
2022/06/12 10:14:39;;;;;;;10.25;2.75;;;24.20;85.20;;;;;;5034767;28;20136;-52
2022/06/12 10:17:13;;;;;;;5.47;2.58;;;24.30;81.70;;;;;;5035713;28;20524;-52
2022/06/12 10:19:58;;;;;;;7.05;2.50;;;24.40;83.40;;;;;;5037907;28;20408;-53
2022/06/12 10:22:33;;;;;;;3.97;2.47;;;24.30;88.70;;;;;;5033824;28;20129;-53
2022/06/12 10:25:00;;;;;;;5.88;2.30;;;24.30;85.00;;;;;;5036379;28;20037;-53
2022/06/12 10:27:40;;;;;;;5.35;2.50;;;24.10;83.30;;;;;;5038081;28;20026;-53
2022/06/12 10:30:07;;;;;;;7.85;3.05;;;23.90;82.20;;;;;;5034497;28;20540;-53
2022/06/12 10:32:54;;;;;;;3.97;2.57;;;24.00;87.80;;;;;;5036390;28;20031;-54
2022/06/12 10:35:23;;;;;;;7.32;2.80;;;24.20;83.50;;;;;;5028755;28;20038;-54
2022/06/12 10:37:48;;;;;;;6.95;2.88;;;24.60;88.90;;;;;;5033573;28;20041;-54
2022/06/12 10:40:23;;;;;;;7.10;2.75;;;24.80;81.50;;;;;;5036638;28;20536;-54
2022/06/12 10:43:02;;;;;;;8.85;2.75;;;24.70;78.90;;;;;;5034601;28;20472;-54
2022/06/12 10:45:36;;;;;;;4.60;2.70;;;24.80;88.70;;;;;;5036013;28;20132;-53
2022/06/12 10:48:24;;;;;;;6.03;3.05;;;25.20;86.50;;;;;;5036524;28;20071;-55
2022/06/12 10:51:02;;;;;;;7.68;3.10;;;25.60;84.40;;;;;;5038167;28;20353;-54
2022/06/12 10:53:30;;;;;;;6.85;3.78;;;25.80;81.10;;;;;;5038164;28;20033;-54
2022/06/12 10:56:15;;;;;;;6.53;2.92;;;25.60;78.80;;;;;;5037943;28;20021;-54
2022/06/12 10:59:21;;;;;;;6.95;2.88;;;25.90;78.40;;;;;;5039896;28;20104;-54
2022/06/12 11:02:24;;;;;;;11.48;3.20;;;26.10;79.30;;;;;;5050485;28;20526;-54
2022/06/12 11:04:55;;;;;;;7.88;3.55;;;26.50;85.20;;;;;;5052278;28;20029;-53
2022/06/12 11:07:37;;;;;;;5.82;2.60;;;26.40;80.70;;;;;;5050753;28;20025;-53
2022/06/12 11:10:08;;;;;;;5.43;2.95;;;26.80;81.50;;;;;;5042167;28;20056;-54
2022/06/12 11:13:09;;;;;;;7.65;3.85;;;26.40;77.20;;;;;;5041230;28;20035;-54
2022/06/12 11:15:43;;;;;;;9.43;3.90;;;26.40;74.90;;;;;;5048707;28;20045;-55
2022/06/12 11:18:14;;;;;;;6.63;2.95;;;26.50;69.90;;;;;;5051710;28;20373;-54
2022/06/12 11:21:09;;;;;;;5.00;2.75;;;26.70;77.60;;;;;;5052011;28;20534;-54
2022/06/12 11:23:45;;;;;;;5.15;2.70;;;27.00;82.20;;;;;;5037129;28;20102;-54
2022/06/12 11:26:26;;;;;;;7.47;3.05;;;27.10;80.70;;;;;;5038423;28;20030;-54
2022/06/12 11:29:29;;;;;;;6.72;2.78;;;27.30;72.30;;;;;;5044468;28;20033;-54
2022/06/12 11:32:32;;;;;;;7.22;3.30;;;26.70;73.10;;;;;;5051769;28;20037;-55
2022/06/12 11:35:41;;;;;;;4.38;2.85;;;26.40;70.30;;;;;;5031578;28;20068;-55
2022/06/12 11:38:25;;;;;;;8.85;3.10;;;26.00;71.20;;;;;;5007674;28;20037;-54
2022/06/12 11:41:08;;;;;;;9.57;3.30;;;26.10;73.90;;;;;;5033389;28;20387;-54
2022/06/12 11:43:43;;;;;;;8.32;3.08;;;25.80;70.00;;;;;;5016282;28;20464;-53
2022/06/12 11:46:15;;;;;;;5.78;3.15;;;25.90;74.40;;;;;;5041001;28;20033;-54
2022/06/12 11:49:02;;;;;;;8.98;3.53;;;26.30;75.90;;;;;;5040495;28;20033;-54
2022/06/12 11:51:33;;;;;;;5.82;3.13;;;26.30;70.20;;;;;;5036394;28;20045;-53
2022/06/12 11:54:27;;;;;;;6.32;3.47;;;26.70;78.70;;;;;;5039405;28;20387;-53
2022/06/12 11:57:16;;;;;;;9.38;3.90;;;27.00;71.90;;;;;;5037887;28;20029;-54
2022/06/12 12:00:12;;;;;;;8.60;3.15;;;27.10;71.10;;;;;;5040183;28;20032;-53
2022/06/12 12:02:57;;;;;;;7.85;3.33;;;27.30;67.30;;;;;;5039121;28;20100;-53
2022/06/12 12:05:50;;;;;;;4.63;2.70;;;27.20;72.60;;;;;;5040970;28;20086;-54
2022/06/12 12:08:48;;;;;;;8.10;3.25;;;27.90;76.00;;;;;;5040217;28;20136;-53
2022/06/12 12:11:24;;;;;;;6.07;2.90;;;27.70;67.10;;;;;;5039139;28;20071;-55
2022/06/12 12:13:54;;;;;;;6.32;3.67;;;27.10;68.20;;;;;;5037356;28;20072;-56
2022/06/12 12:16:41;;;;;;;3.60;2.83;;;27.20;64.00;;;;;;5038590;28;20017;-55
2022/06/12 12:19:16;;;;;;;5.45;3.03;;;27.20;64.00;;;;;;5035330;28;20070;-55
2022/06/12 12:21:58;;;;;;;4.50;2.45;;;27.30;62.00;;;;;;5038692;28;20025;-53
2022/06/12 12:24:32;;;;;;;5.18;3.03;;;27.80;66.00;;;;;;5036178;28;20027;-53
2022/06/12 12:27:02;;;;;;;7.68;2.90;;;28.20;68.30;;;;;;5038332;28;20357;-54
2022/06/12 12:29:32;;;;;;;7.45;3.60;;;28.50;66.60;;;;;;5036921;28;20029;-54
2022/06/12 12:31:58;;;;;;;7.55;2.95;;;28.30;64.80;;;;;;5038774;28;20075;-54
2022/06/12 12:34:26;;;;;;;4.85;2.47;;;28.70;68.30;;;;;;5035823;28;20115;-53
2022/06/12 12:42:33;;;;;;;5.20;2.97;;;28.70;65.40;;;;;;5039985;28;20040;-54
2022/06/12 12:45:14;;;;;;;6.30;2.42;;;28.80;65.00;;;;;;5040157;28;20026;-53
2022/06/12 12:47:40;;;;;;;4.10;2.60;;;28.80;66.50;;;;;;5038760;28;20047;-53
2022/06/12 12:50:17;;;;;;;8.38;2.53;;;29.10;67.50;;;;;;5038428;28;20495;-53
2022/06/12 12:52:57;;;;;;;5.60;2.70;;;29.30;66.40;;;;;;5034163;28;20402;-53
2022/06/12 12:55:22;;;;;;;4.05;2.33;;;29.40;64.20;;;;;;5030581;28;20052;-53
2022/06/12 12:57:49;;;;;;;4.70;2.95;;;29.50;62.90;;;;;;5030224;28;20416;-53
2022/06/12 13:00:17;;;;;;;8.90;2.20;;;29.70;61.60;;;;;;5029813;28;20809;-53
2022/06/12 13:02:53;;;;;;;8.50;2.90;;;29.60;67.70;;;;;;5030026;28;20021;-53
2022/06/12 13:05:26;;;;;;;10.15;3.17;;;29.00;58.80;;;;;;5030006;28;20108;-53
2022/06/12 13:07:54;;;;;;;27.30;19.17;;;29.00;59.10;;;;;;5029983;28;20032;-52
2022/06/12 13:10:30;;;;;;;6.05;2.75;;;28.80;59.30;;;;;;5038713;28;20063;-53
2022/06/12 13:13:16;;;;;;;5.45;2.70;;;28.50;59.20;;;;;;5039780;28;20041;-53
2022/06/12 13:16:08;;;;;;;4.40;2.30;;;28.70;61.90;;;;;;5035930;28;20108;-53
2022/06/12 13:19:05;;;;;;;3.78;2.13;;;28.90;64.90;;;;;;5037631;28;20025;-53
2022/06/12 13:21:34;;;;;;;5.53;2.55;;;29.20;61.60;;;;;;5030296;28;20095;-53
2022/06/12 13:24:31;;;;;;;4.80;1.85;;;29.20;66.40;;;;;;5037457;28;20030;-53
2022/06/12 13:26:58;;;;;;;5.70;2.28;;;28.80;60.40;;;;;;5036400;28;20036;-55
2022/06/12 13:29:25;;;;;;;7.80;2.40;;;28.70;63.40;;;;;;5037102;28;20097;-55
2022/06/12 13:31:59;;;;;;;5.57;2.22;;;28.40;65.30;;;;;;5037850;28;20094;-55